Ridgedale, MO

11:33 AM CST on February 01, 2015 (GMT -0600)
Branson | Change Station
CLOSE
Current Station
Airport
Location: Branson,
Elevation: 1302 ft
Nearby Weather Stations

Elev 1302 ft 36.53 °N, 93.20 °W | Updated 47 minutes ago

Light Rain
Light Rain Mist
45 °F
Feels Like 40 °F
N
9
Wind Variable Wind from West
Gusts 18 mph

Today
High -- | Low -- °F
--% Chance of Precip.
Yesterday
High -- | Low -- °F
Precip. -- in
7:14 AM 5:38 PM
Waxing Gibbous, 95% visible
Pressure 29.75 in
Visibility 4.0 miles
Clouds Mostly Cloudy 700 ft
Overcast 1300 ft
Windchill 40 °F
Dew Point 43 °F
Humidity 93%
Rainfall 0.57 in
Snow Depth Not available.
UV 1 out of 12
Pollen .10 out of 12
Air Quality Not available.
Flu Activity Not available.
METAR KBBG 011646Z 26008G16KT 4SM -RA BR BKN007 OVC013 07/06 A2975

More Conditions Fewer Conditions

Pressure 29.75 in
Visibility 4.0 miles
Clouds Mostly Cloudy 700 ft
Overcast 1300 ft
Windchill 40 °F
Dew Point 43 °F
Humidity 93%
Rainfall 0.57 in
Snow Depth Not available.
UV 1 out of 12
Pollen .10 out of 12
Air Quality Not available.
Flu Activity Not available.
METAR KBBG 011646Z 26008G16KT 4SM -RA BR BKN007 OVC013 07/06 A2975

More Conditions Fewer Conditions

10-Day Weather Forecast

Almanac

Astronomy

Feb. 01, 2015 Rise Set
Actual Time
Civil Twilight
Nautical Twilight
Astronomical Twilight
Moon
Length of Visible Light
Length of Day
Tomorrow will be .
, % of the Moon is Illuminated

Today's Extremes

State Highs State Lows

Community

WunderPhotos

Upload Photos

1,792,405 photos uploaded!

WunderBlogs® & News

Nearby

Air Quality

  Air Quality AQ Index Pollutant
Not available.

Snow Depth

Station Depth Elevation

Earthquake Activity

City Distance Mag. Time & Date
Minimum magnitude displayed is 2.5.

Coastal Water Temperatures

Place Temperature

Nearby Weather Stations